Terminal Aerodrome Forecast
Issued by NWS Austin/San Antonio, TX

Home | Current Version | Previous Version | Text Only | Print | Product List | Glossary On
Versions: 1 2 3 4 5 6 7 8 9 10 11 12 13 14 15 16 17 18 19
000
FTUS44 KEWX 262334
TAFSAT
TAF
KSAT 262334Z 2700/2806 16014KT P6SM FEW060 FEW150
     FM270500 16005KT P6SM OVC015
     FM270900 18005KT 4SM BR OVC007
     FM271500 19005KT P6SM BKN025
     FM271700 16007KT P6SM BKN040=

USA.gov is the U.S. government's official web portal to all federal, state and local government web resources and services.